Time;durP1;ratioP1;P1;durP2;ratioP2;P2;SDS_P1;SDS_P2;PMS_P1;PMS_P2;Temp;Humidity;BMP_temperature;BMP_pressure;BME280_temperature;BME280_humidity;BME280_pressure;Samples;Min_cycle;Max_cycle;Signal;HPM_P1;HPM_P2
2024/02/21 00:01:16;;;;;;;6.47;3.20;;;;;;;17.43;57.42;101967.75;10449056;28;20052;-54
2024/02/21 00:06:17;;;;;;;5.78;3.72;;;;;;;17.42;58.54;101961.59;10449349;28;20283;-56
2024/02/21 00:11:17;;;;;;;6.68;4.03;;;;;;;17.42;58.07;101956.22;10448656;28;20572;-56
2024/02/21 00:16:17;;;;;;;7.20;4.15;;;;;;;17.43;57.58;101957.03;10449705;28;20468;-56
2024/02/21 00:21:18;;;;;;;7.32;4.20;;;;;;;17.44;58.35;101954.09;10448766;28;20049;-56
2024/02/21 00:26:18;;;;;;;7.57;3.63;;;;;;;17.44;58.48;101945.25;10449171;28;20021;-56
2024/02/21 00:31:18;;;;;;;6.57;3.50;;;;;;;17.45;57.43;101944.19;10448731;28;20017;-56
2024/02/21 00:36:19;;;;;;;6.03;3.37;;;;;;;17.45;58.31;101920.84;10448977;28;20271;-56
2024/02/21 00:41:19;;;;;;;5.27;3.30;;;;;;;17.45;57.08;101922.72;10448764;28;20275;-56
2024/02/21 00:46:19;;;;;;;7.07;3.83;;;;;;;17.45;57.91;101926.22;10449138;28;20374;-56
2024/02/21 00:51:20;;;;;;;6.83;3.13;;;;;;;17.46;57.75;101914.41;10455475;28;20850;-56
2024/02/21 00:56:20;;;;;;;6.07;3.05;;;;;;;17.44;58.70;101895.09;10456078;28;20314;-56
2024/02/21 01:01:22;;;;;;;5.03;3.40;;;;;;;17.45;57.40;101888.69;10455336;28;20024;-56
2024/02/21 01:06:23;;;;;;;6.47;3.10;;;;;;;17.46;57.44;101887.59;10455666;28;20279;-56
2024/02/21 01:11:23;;;;;;;5.38;2.88;;;;;;;17.45;58.68;101890.56;10454732;28;20404;-56
2024/02/21 01:16:24;;;;;;;4.70;3.10;;;;;;;17.48;58.60;101900.75;10454885;28;20028;-56
2024/02/21 01:21:24;;;;;;;5.97;3.22;;;;;;;17.49;56.99;101884.41;10454610;28;20950;-56
2024/02/21 01:26:24;;;;;;;6.40;3.43;;;;;;;17.46;57.17;101905.56;10454600;28;20523;-56
2024/02/21 01:31:25;;;;;;;9.40;3.47;;;;;;;17.48;56.94;101909.59;10454110;28;20283;-56
2024/02/21 01:36:25;;;;;;;5.03;2.70;;;;;;;17.45;57.58;101907.44;10454403;28;20032;-56
2024/02/21 01:41:25;;;;;;;6.13;2.77;;;;;;;17.48;57.25;101900.75;10453398;28;20055;-56
2024/02/21 01:46:28;;;;;;;5.30;2.90;;;;;;;17.47;57.79;101888.41;10453614;28;20405;-56
2024/02/21 01:51:28;;;;;;;4.68;2.33;;;;;;;17.45;57.86;101882.50;10452147;28;21258;-56
2024/02/21 01:56:29;;;;;;;4.30;2.38;;;;;;;17.45;56.85;101877.13;10453500;28;20028;-56
2024/02/21 02:01:29;;;;;;;6.03;2.38;;;;;;;17.47;56.91;101865.09;10452721;28;20021;-56
2024/02/21 02:06:30;;;;;;;5.45;2.78;;;;;;;17.45;58.41;101861.06;10453044;28;20035;-56
2024/02/21 02:11:32;;;;;;;8.18;2.58;;;;;;;17.44;58.03;101865.59;10452450;28;20147;-56
2024/02/21 02:16:32;;;;;;;4.22;2.53;;;;;;;17.44;57.84;101846.03;10453083;28;20545;-56
2024/02/21 02:21:37;;;;;;;4.70;2.77;;;;;;;17.46;57.18;101842.03;10452360;28;20083;-56
2024/02/21 02:26:38;;;;;;;4.47;2.67;;;;;;;17.47;57.61;101851.69;10451081;28;20690;-56
2024/02/21 02:31:38;;;;;;;3.90;2.40;;;;;;;17.46;58.16;101833.97;10451755;28;20104;-56
2024/02/21 02:36:39;;;;;;;4.97;2.58;;;;;;;17.48;57.92;101820.31;10452079;28;20029;-56
2024/02/21 02:41:39;;;;;;;4.80;2.30;;;;;;;17.48;57.42;101810.38;10450157;28;20021;-56
2024/02/21 02:46:42;;;;;;;5.67;3.03;;;;;;;17.48;56.59;101810.38;10451635;28;20755;-56
2024/02/21 02:51:43;;;;;;;3.40;2.17;;;;;;;17.47;57.66;101811.47;10451018;28;20029;-56
2024/02/21 02:56:44;;;;;;;4.88;2.22;;;;;;;17.49;57.14;101820.03;10451154;28;20705;-56
2024/02/21 03:01:44;;;;;;;5.60;2.23;;;;;;;17.48;57.34;101801.53;10450561;28;20024;-56
2024/02/21 03:06:44;;;;;;;3.07;1.83;;;;;;;17.46;58.04;101793.75;10450856;28;20280;-56
2024/02/21 03:11:44;;;;;;;4.10;2.10;;;;;;;17.45;58.03;101784.09;10449484;28;20295;-56
2024/02/21 03:16:45;;;;;;;4.77;2.67;;;;;;;17.44;56.91;101779.00;10450671;28;20275;-56
2024/02/21 03:21:45;;;;;;;4.90;2.53;;;;;;;17.48;56.99;101782.78;10450102;28;20071;-56
2024/02/21 03:26:49;;;;;;;3.47;2.60;;;;;;;17.46;56.86;101780.34;10450312;28;20306;-56
2024/02/21 03:31:50;;;;;;;3.35;1.80;;;;;;;17.46;57.13;101777.66;10449557;28;20287;-56
2024/02/21 03:36:51;;;;;;;4.90;2.22;;;;;;;17.48;57.29;101782.78;10450059;28;20047;-56
2024/02/21 03:41:51;;;;;;;3.77;1.93;;;;;;;17.47;57.42;101773.91;10450224;28;20541;-56
2024/02/21 03:46:51;;;;;;;5.18;2.00;;;;;;;17.48;57.44;101748.72;10449584;28;20286;-56
2024/02/21 03:51:52;;;;;;;5.47;2.80;;;;;;;17.48;56.80;101748.72;10450032;28;20075;-56
2024/02/21 03:56:52;;;;;;;3.45;1.95;;;;;;;17.50;57.51;101740.41;10448003;28;20324;-56
2024/02/21 04:01:53;;;;;;;3.37;2.03;;;;;;;17.49;56.63;101741.47;10449795;28;20021;-56
2024/02/21 04:06:53;;;;;;;4.03;1.70;;;;;;;17.46;57.31;101748.19;10449120;28;20272;-56
2024/02/21 04:11:54;;;;;;;2.83;2.00;;;;;;;17.45;56.63;101738.53;10449000;28;20073;-56
2024/02/21 04:16:54;;;;;;;3.92;1.90;;;;;;;17.46;57.57;101739.31;10449048;28;20300;-56
2024/02/21 04:21:55;;;;;;;4.00;1.70;;;;;;;17.46;57.12;101732.09;10452227;28;20150;-56
2024/02/21 04:26:55;;;;;;;3.03;1.83;;;;;;;17.45;56.64;101725.13;10456961;28;20275;-56
2024/02/21 04:31:55;;;;;;;2.93;1.90;;;;;;;17.43;58.08;101719.22;10456822;28;20029;-56
2024/02/21 04:36:55;;;;;;;3.93;1.50;;;;;;;17.42;57.53;101717.59;10456422;28;20036;-56
2024/02/21 04:41:56;;;;;;;3.70;1.83;;;;;;;17.40;57.88;101719.72;10455187;28;20271;-56
2024/02/21 04:46:56;;;;;;;3.27;2.20;;;;;;;17.42;57.19;101722.97;10454329;28;20044;-56
2024/02/21 04:51:56;;;;;;;3.03;1.77;;;;;;;17.45;57.52;101711.72;10454002;28;20767;-55
2024/02/21 04:56:57;;;;;;;2.87;1.80;;;;;;;17.49;57.54;101699.38;10454158;28;20271;-55
2024/02/21 05:01:58;;;;;;;3.53;1.70;;;;;;;17.44;57.52;101683.28;10452966;28;20763;-56
2024/02/21 05:07:00;;;;;;;2.70;1.85;;;;;;;17.51;57.34;101688.38;10453758;28;20319;-57
2024/02/21 05:12:00;;;;;;;3.22;1.80;;;;;;;17.47;57.81;101665.88;10453665;28;20036;-55
2024/02/21 05:17:00;;;;;;;5.43;2.03;;;;;;;17.45;57.95;101673.38;10451810;28;20040;-55
2024/02/21 05:22:01;;;;;;;5.23;1.83;;;;;;;17.36;57.41;101677.63;10453623;28;20453;-57
2024/02/21 05:27:01;;;;;;;3.57;1.40;;;;;;;17.33;57.98;101672.81;10449538;28;20279;-56
2024/02/21 05:32:02;;;;;;;2.17;1.37;;;;;;;17.31;57.94;101667.69;10447271;28;20306;-57
2024/02/21 05:37:02;;;;;;;3.30;1.92;;;;;;;17.34;57.04;101656.44;10449434;28;20283;-57
2024/02/21 05:42:03;;;;;;;3.22;2.13;;;;;;;17.32;57.96;101652.44;10439213;28;20025;-58
2024/02/21 05:47:03;;;;;;;2.42;1.50;;;;;;;17.32;58.65;101626.44;10453593;28;20036;-57
2024/02/21 05:52:05;;;;;;;4.13;2.17;;;;;;;17.29;57.35;101636.88;10450803;28;20029;-57
2024/02/21 05:57:07;;;;;;;2.58;1.55;;;;;;;17.32;57.42;101614.91;10448668;28;20377;-57
2024/02/21 06:02:08;;;;;;;5.32;2.10;;;;;;;17.31;57.52;101619.47;10450278;28;20062;-56
2024/02/21 06:07:08;;;;;;;4.00;1.73;;;;;;;17.32;57.47;101613.03;10449937;28;20029;-56
2024/02/21 06:12:08;;;;;;;5.47;1.43;;;;;;;17.37;57.90;101607.66;10436211;28;20299;-55
2024/02/21 06:17:09;;;;;;;4.90;2.47;;;;;;;17.47;57.76;101604.19;10449138;28;20626;-58
2024/02/21 06:22:09;;;;;;;5.00;2.27;;;;;;;17.54;57.86;101594.84;10450602;28;20347;-58
2024/02/21 06:27:11;;;;;;;9.03;2.60;;;;;;;17.55;59.04;101598.31;10448963;28;20271;-59
2024/02/21 06:32:11;;;;;;;9.45;1.90;;;;;;;17.56;58.97;101607.16;10447680;28;20287;-56
2024/02/21 06:37:11;;;;;;;6.97;1.67;;;;;;;17.41;58.32;101595.34;10444394;28;20029;-56
2024/02/21 06:42:12;;;;;;;8.13;2.17;;;;;;;17.42;58.09;101593.47;10444012;28;20276;-56
2024/02/21 06:47:12;;;;;;;4.65;2.65;;;;;;;17.37;59.19;101598.81;10447849;28;20263;-56
2024/02/21 06:52:16;;;;;;;8.73;3.35;;;;;;;17.32;58.63;101594.25;10449700;28;20447;-56
2024/02/21 06:57:16;;;;;;;6.35;2.20;;;;;;;17.31;59.68;101599.88;10450176;28;20048;-56
2024/02/21 07:02:17;;;;;;;9.65;2.72;;;;;;;17.32;58.23;101588.09;10449465;28;20399;-56
2024/02/21 07:07:17;;;;;;;11.38;2.90;;;;;;;17.20;59.38;101586.47;10448788;28;20040;-57
2024/02/21 07:12:17;;;;;;;12.60;2.53;;;;;;;17.24;58.83;101587.53;10449175;28;20045;-58
2024/02/21 07:17:18;;;;;;;5.68;2.42;;;;;;;17.21;58.82;101587.25;10445222;28;20284;-57
2024/02/21 07:22:18;;;;;;;9.43;2.30;;;;;;;17.20;58.75;101578.41;10449901;28;20021;-57
2024/02/21 07:27:19;;;;;;;8.02;2.72;;;;;;;17.19;59.32;101566.09;10448798;28;20287;-57
2024/02/21 07:32:20;;;;;;;8.53;2.50;;;;;;;17.17;58.99;101556.72;10449014;28;20377;-57
2024/02/21 07:37:20;;;;;;;8.63;2.75;;;;;;;17.13;58.85;101560.97;10448721;28;20299;-56
2024/02/21 07:42:21;;;;;;;8.60;2.67;;;;;;;17.13;58.17;101544.91;10449023;28;20017;-57
2024/02/21 07:47:21;;;;;;;5.45;2.38;;;;;;;17.11;58.57;101542.50;10443090;28;20279;-56
2024/02/21 07:52:21;;;;;;;4.20;1.83;;;;;;;17.11;58.96;101534.44;10425142;28;20108;-57
2024/02/21 07:57:23;;;;;;;5.17;2.37;;;;;;;17.12;58.54;101517.28;10428054;28;20283;-57
2024/02/21 08:02:23;;;;;;;7.75;2.83;;;;;;;17.10;58.78;101497.19;10458161;28;20624;-57
2024/02/21 08:07:23;;;;;;;4.67;1.87;;;;;;;17.05;59.52;101498.00;10456736;28;20021;-58
2024/02/21 08:12:24;;;;;;;6.30;2.88;;;;;;;17.14;59.53;101487.56;10457361;28;20872;-58
2024/02/21 08:17:24;;;;;;;5.87;1.90;;;;;;;17.14;57.95;101496.41;10457498;28;20496;-58
2024/02/21 08:22:24;;;;;;;8.43;2.37;;;;;;;17.16;58.76;101496.94;10456991;28;20267;-58
2024/02/21 08:27:25;;;;;;;5.75;2.35;;;;;;;17.29;59.20;101484.91;10456730;28;20333;-58
2024/02/21 08:32:25;;;;;;;4.93;2.33;;;;;;;17.24;58.63;101490.25;10456570;28;20025;-58
2024/02/21 08:37:27;;;;;;;7.00;2.50;;;;;;;17.25;57.98;101489.16;10451336;28;20029;-58
2024/02/21 08:42:27;;;;;;;8.75;2.20;;;;;;;17.23;57.71;101467.19;10455225;28;20279;-58
2024/02/21 08:47:27;;;;;;;6.47;2.27;;;;;;;17.20;57.88;101467.75;10455546;28;20079;-58
2024/02/21 08:52:28;;;;;;;5.73;1.73;;;;;;;17.21;58.17;101459.44;10455342;28;20294;-58
2024/02/21 08:57:28;;;;;;;4.57;2.25;;;;;;;17.20;57.89;101440.94;10454280;28;20282;-58
2024/02/21 09:02:29;;;;;;;7.22;1.83;;;;;;;17.18;58.26;101433.16;10455388;28;20415;-58
2024/02/21 09:07:29;;;;;;;5.47;2.40;;;;;;;17.15;58.07;101428.31;10451809;28;20035;-58
2024/02/21 09:12:29;;;;;;;5.03;2.27;;;;;;;17.15;58.08;101425.66;10454219;28;20307;-58
2024/02/21 09:17:30;;;;;;;3.28;1.77;;;;;;;17.17;58.46;101425.41;10453619;28;20305;-57
2024/02/21 09:22:33;;;;;;;5.00;2.45;;;;;;;17.12;58.56;101420.84;10454626;28;20067;-58
2024/02/21 09:27:34;;;;;;;4.70;1.83;;;;;;;17.14;58.04;101423.25;10453741;28;20028;-58
2024/02/21 09:32:34;;;;;;;5.45;1.73;;;;;;;17.15;58.72;101411.44;10453582;28;20033;-57
2024/02/21 09:37:34;;;;;;;3.93;1.93;;;;;;;17.15;58.24;101411.44;10452817;28;20296;-58
2024/02/21 09:42:39;;;;;;;2.83;1.63;;;;;;;17.18;58.36;101400.22;10453547;28;20303;-58
2024/02/21 09:47:47;;;;;;;4.07;1.80;;;;;;;17.19;57.57;101383.84;10452471;28;20283;-58
2024/02/21 09:52:48;;;;;;;4.47;2.58;;;;;;;17.16;58.10;101379.00;10451378;28;20573;-58
2024/02/21 09:57:50;;;;;;;4.85;2.00;;;;;;;17.13;58.08;101370.72;10452913;28;20126;-58
2024/02/21 10:02:50;;;;;;;3.85;2.10;;;;;;;17.13;58.85;101355.44;10451481;28;20031;-57
2024/02/21 10:07:51;;;;;;;3.67;1.63;;;;;;;17.16;58.28;101346.06;10450426;28;20198;-57
2024/02/21 10:12:54;;;;;;;5.80;2.38;;;;;;;17.16;58.80;101327.31;10451485;28;20041;-58
2024/02/21 10:18:01;;;;;;;2.83;1.23;;;;;;;17.15;58.80;101320.34;10451472;28;20032;-58
2024/02/21 10:23:08;;;;;;;5.97;2.47;;;;;;;17.12;58.76;101310.16;10450116;28;20025;-58
2024/02/21 10:28:08;;;;;;;5.00;2.03;;;;;;;17.15;58.54;101296.22;10450925;28;20028;-58
2024/02/21 10:33:08;;;;;;;2.90;2.00;;;;;;;17.15;58.28;101275.59;10448525;28;20036;-59
2024/02/21 10:38:09;;;;;;;7.70;1.57;;;;;;;17.11;58.46;101285.25;10449736;28;20270;-58
2024/02/21 10:43:12;;;;;;;5.50;1.90;;;;;;;17.12;58.23;101281.50;10452039;28;20267;-58
2024/02/21 10:48:14;;;;;;;2.72;1.20;;;;;;;17.13;58.30;101272.38;10451428;28;20742;-58
2024/02/21 10:53:25;;;;;;;3.33;1.85;;;;;;;17.13;57.93;101252.81;10450763;28;20416;-58
2024/02/21 10:58:27;;;;;;;3.15;1.52;;;;;;;17.13;57.29;101232.19;10448515;28;20041;-57
2024/02/21 11:03:28;;;;;;;3.88;1.85;;;;;;;17.17;58.29;101219.88;10449807;28;20025;-58
2024/02/21 11:08:28;;;;;;;4.07;2.13;;;;;;;17.15;58.55;101186.34;10432221;28;20452;-58
2024/02/21 11:13:35;;;;;;;7.05;2.22;;;;;;;17.24;57.38;101163.28;10450103;28;20040;-59
2024/02/21 11:18:36;;;;;;;4.20;1.50;;;;;;;17.35;57.10;101154.13;10445450;28;20031;-59
2024/02/21 11:23:36;;;;;;;4.35;1.92;;;;;;;17.33;58.65;101164.31;10449241;28;20044;-58
2024/02/21 11:28:37;;;;;;;5.50;1.90;;;;;;;17.34;57.95;101216.84;10449991;28;20472;-60
2024/02/21 11:33:43;;;;;;;4.40;2.10;;;;;;;17.37;58.74;101192.16;10449483;28;20293;-60
2024/02/21 11:38:44;;;;;;;4.10;2.05;;;;;;;17.37;58.99;101175.28;10448422;28;20028;-58
2024/02/21 11:43:44;;;;;;;3.50;2.23;;;;;;;17.32;59.11;101160.03;10450112;28;20021;-59
2024/02/21 11:48:49;;;;;;;3.07;2.10;;;;;;;17.32;58.24;101159.22;10446818;28;20271;-59
2024/02/21 11:53:50;;;;;;;6.47;2.20;;;;;;;17.25;58.06;101146.91;10447716;28;20290;-58
2024/02/21 11:58:51;;;;;;;6.35;1.92;;;;;;;17.28;59.46;101136.72;10448436;28;20028;-58
2024/02/21 12:03:51;;;;;;;8.17;2.50;;;;;;;17.34;59.07;101112.31;10449689;28;20017;-59
2024/02/21 12:08:53;;;;;;;8.17;2.00;;;;;;;17.39;59.32;101098.88;10448703;28;20275;-58
2024/02/21 12:14:01;;;;;;;6.32;2.45;;;;;;;17.41;58.80;101072.59;10449089;28;20338;-58
2024/02/21 12:19:02;;;;;;;7.13;1.90;;;;;;;17.31;59.38;101034.34;10447492;28;20036;-59
2024/02/21 12:24:16;;;;;;;3.58;1.67;;;;;;;17.24;58.96;101000.59;10449421;28;20044;-59
2024/02/21 12:29:16;;;;;;;7.60;2.10;;;;;;;17.21;59.02;101001.16;10448895;28;20415;-58
2024/02/21 12:34:17;;;;;;;4.30;1.60;;;;;;;17.17;58.79;100984.06;10449152;28;20017;-59
2024/02/21 12:39:17;;;;;;;4.65;2.35;;;;;;;17.16;59.28;100973.59;10448828;28;20641;-59
2024/02/21 12:44:18;;;;;;;4.30;1.60;;;;;;;17.17;57.76;100965.31;10453742;28;20021;-60
2024/02/21 12:49:18;;;;;;;2.75;1.40;;;;;;;17.14;58.86;100960.47;10454500;28;20271;-59
2024/02/21 12:54:18;;;;;;;5.23;1.90;;;;;;;17.15;58.66;100935.28;10449076;28;20033;-58
2024/02/21 12:59:19;;;;;;;6.47;2.00;;;;;;;17.17;57.52;100906.34;10441323;28;20279;-59
2024/02/21 13:04:19;;;;;;;6.10;2.13;;;;;;;17.22;58.26;100892.91;10454776;28;20814;-58
2024/02/21 13:09:19;;;;;;;7.18;1.98;;;;;;;17.21;58.31;100875.22;10454215;28;20403;-58
2024/02/21 13:14:21;;;;;;;11.00;2.03;;;;;;;17.18;58.71;100864.28;10449605;28;20145;-59
2024/02/21 13:19:21;;;;;;;6.63;1.63;;;;;;;17.16;58.28;100826.22;10442947;28;20043;-59
2024/02/21 13:24:21;;;;;;;6.67;1.80;;;;;;;17.34;58.47;100830.09;10453985;28;20013;-58
2024/02/21 13:29:22;;;;;;;6.00;2.67;;;;;;;17.40;57.71;100816.31;10453982;28;20271;-57
2024/02/21 13:34:22;;;;;;;9.57;1.80;;;;;;;17.48;58.42;100814.91;10452845;28;20797;-61
2024/02/21 13:39:22;;;;;;;11.77;2.63;;;;;;;17.42;58.70;100822.22;10449335;28;20276;-59
2024/02/21 13:44:23;;;;;;;13.60;2.47;;;;;;;17.30;57.81;100803.06;10438832;28;20032;-60
2024/02/21 13:49:23;;;;;;;7.35;1.98;;;;;;;17.27;57.99;100790.22;10447039;28;20290;-60
2024/02/21 13:54:24;;;;;;;10.07;2.67;;;;;;;17.24;58.72;100783.53;10450459;28;20584;-59
2024/02/21 13:59:26;;;;;;;8.20;2.30;;;;;;;17.18;57.57;100754.44;10451848;28;20012;-59
2024/02/21 14:04:27;;;;;;;8.10;2.47;;;;;;;17.27;57.50;100731.25;10452051;28;20167;-58
2024/02/21 14:09:31;;;;;;;9.40;1.95;;;;;;;17.32;57.29;100717.81;10451862;28;20032;-58
2024/02/21 14:14:33;;;;;;;6.28;2.00;;;;;;;17.38;57.38;100703.25;10450197;28;20025;-60
2024/02/21 14:19:33;;;;;;;7.85;2.33;;;;;;;17.38;57.51;100695.22;10451908;28;20032;-59
2024/02/21 14:24:33;;;;;;;7.47;2.03;;;;;;;17.30;57.45;100676.31;10451510;28;20021;-60
2024/02/21 14:29:33;;;;;;;8.90;1.97;;;;;;;17.30;57.72;100665.59;10451356;28;20271;-59
2024/02/21 14:34:34;;;;;;;7.60;2.22;;;;;;;17.27;57.51;100640.16;10451152;28;20984;-61
2024/02/21 14:39:35;;;;;;;8.83;2.40;;;;;;;17.27;57.96;100626.75;10451465;28;20531;-59
2024/02/21 14:44:37;;;;;;;9.77;3.28;;;;;;;17.30;57.11;100626.19;10446561;28;20378;-61
2024/02/21 14:49:37;;;;;;;5.07;1.77;;;;;;;17.23;58.44;100613.13;10448614;28;20025;-60
2024/02/21 14:54:38;;;;;;;10.40;2.17;;;;;;;17.29;58.01;100623.81;10450303;28;20017;-59
2024/02/21 14:59:38;;;;;;;11.43;3.33;;;;;;;17.39;57.17;100589.59;10450287;28;20275;-59
2024/02/21 15:04:38;;;;;;;9.95;2.72;;;;;;;17.37;56.47;100572.22;10447822;28;20028;-56
2024/02/21 15:09:39;;;;;;;11.48;2.35;;;;;;;17.30;58.13;100556.53;10448597;28;20053;-57
2024/02/21 15:14:39;;;;;;;12.50;2.20;;;;;;;17.31;57.41;100557.31;10448002;28;20017;-56
2024/02/21 15:19:43;;;;;;;10.95;1.95;;;;;;;17.28;58.02;100541.78;10448399;28;20025;-58
2024/02/21 15:24:45;;;;;;;13.00;3.42;;;;;;;17.24;57.77;100529.00;10448171;28;20127;-58
2024/02/21 15:29:46;;;;;;;10.18;2.17;;;;;;;17.22;57.77;100514.28;10446149;28;20028;-58
2024/02/21 15:34:46;;;;;;;6.25;2.25;;;;;;;17.20;58.80;100498.50;10447782;28;20028;-58
2024/02/21 15:39:47;;;;;;;8.15;3.33;;;;;;;17.22;58.10;100488.28;10446531;28;20452;-57
2024/02/21 15:44:48;;;;;;;5.72;1.83;;;;;;;17.19;58.99;100467.44;10447319;28;20510;-58
2024/02/21 15:49:48;;;;;;;6.00;1.80;;;;;;;17.18;57.43;100457.03;10448473;28;20043;-57
2024/02/21 15:54:48;;;;;;;9.07;2.80;;;;;;;17.31;57.18;100444.75;10448146;28;20290;-59
2024/02/21 15:59:53;;;;;;;11.37;3.00;;;;;;;17.33;57.71;100416.56;10448688;28;20282;-60
2024/02/21 16:04:56;;;;;;;12.05;2.13;;;;;;;17.38;58.72;100404.97;10448899;28;20267;-60
2024/02/21 16:09:56;;;;;;;19.17;3.05;;;;;;;17.29;58.22;100390.69;10448063;28;20447;-57
2024/02/21 16:14:56;;;;;;;16.73;3.13;;;;;;;17.35;56.97;100365.38;10447829;28;20051;-59
2024/02/21 16:19:57;;;;;;;9.40;3.50;;;;;;;17.45;57.27;100352.56;10453525;28;20025;-58
2024/02/21 16:24:57;;;;;;;9.43;2.83;;;;;;;17.45;57.06;100331.13;10455862;28;20358;-58
2024/02/21 16:29:58;;;;;;;14.10;2.93;;;;;;;17.53;56.92;100330.44;10457269;28;20431;-57
2024/02/21 16:34:58;;;;;;;10.03;2.60;;;;;;;17.57;57.91;100303.84;10456547;28;20295;-60
2024/02/21 16:39:59;;;;;;;9.10;2.50;;;;;;;17.58;57.24;100324.19;10453647;28;20685;-60
2024/02/21 16:45:00;;;;;;;9.38;3.05;;;;;;;17.64;57.01;100308.78;10455201;28;20271;-60
2024/02/21 16:50:01;;;;;;;9.70;2.90;;;;;;;17.62;56.87;100300.25;10456418;28;20586;-60
2024/02/21 16:55:01;;;;;;;57.60;37.50;;;;;;;17.78;62.90;100296.22;10456051;28;20024;-61
2024/02/21 17:00:10;;;;;;;64.40;38.67;;;;;;;17.87;61.35;100285.56;10454904;28;20025;-57
2024/02/21 17:05:11;;;;;;;57.67;36.42;;;;;;;17.81;61.01;100282.19;10454463;28;20271;-60
2024/02/21 17:10:11;;;;;;;48.95;27.75;;;;;;;17.76;59.93;100279.63;10454643;28;20042;-64
2024/02/21 17:15:13;;;;;;;39.57;23.97;;;;;;;17.69;58.61;100266.63;10453568;28;20025;-61
2024/02/21 17:20:14;;;;;;;32.17;19.90;;;;;;;17.67;57.76;100262.63;10452172;28;20282;-62
2024/02/21 17:25:14;;;;;;;27.65;17.80;;;;;;;17.61;58.16;100247.72;10454606;28;20020;-59
2024/02/21 17:30:14;;;;;;;34.05;15.85;;;;;;;17.61;58.13;100248.50;10452159;28;20033;-60
2024/02/21 17:35:15;;;;;;;28.35;15.23;;;;;;;17.64;56.81;100234.53;10451329;28;20040;-60
2024/02/21 17:40:16;;;;;;;28.52;13.98;;;;;;;17.52;57.50;100229.69;10435031;28;20043;-61
2024/02/21 17:45:16;;;;;;;25.05;13.02;;;;;;;17.47;57.25;100219.06;10433826;28;20029;-61
2024/02/21 17:50:17;;;;;;;36.90;14.30;;;;;;;17.44;56.89;100216.19;10441358;28;20260;-61
2024/02/21 17:55:17;;;;;;;23.40;10.45;;;;;;;17.42;57.26;100211.13;10438551;28;20287;-61
2024/02/21 18:00:18;;;;;;;25.53;11.87;;;;;;;17.38;56.81;100198.59;10445580;28;20392;-61
2024/02/21 18:05:19;;;;;;;18.73;12.35;;;;;;;17.33;57.23;100185.31;10436128;28;20271;-61
2024/02/21 18:10:21;;;;;;;19.48;9.63;;;;;;;17.33;57.85;100182.66;10435466;28;20040;-60
2024/02/21 18:15:21;;;;;;;17.35;9.93;;;;;;;17.31;57.60;100164.19;10442498;28;20033;-60
2024/02/21 18:20:22;;;;;;;17.57;8.80;;;;;;;17.29;57.88;100160.25;10437336;28;20041;-61
2024/02/21 18:25:24;;;;;;;15.90;8.10;;;;;;;17.26;57.95;100156.25;10427840;28;20303;-60
2024/02/21 18:30:24;;;;;;;15.10;6.85;;;;;;;17.25;57.27;100139.38;10441347;28;20309;-59
2024/02/21 18:35:25;;;;;;;16.80;7.53;;;;;;;17.23;58.11;100124.69;10440280;28;20028;-60
2024/02/21 18:40:27;;;;;;;14.77;7.47;;;;;;;17.19;57.17;100111.13;10439343;28;20275;-60
2024/02/21 18:45:28;;;;;;;12.00;7.32;;;;;;;17.21;57.21;100100.09;10441763;28;20056;-60
2024/02/21 18:50:28;;;;;;;11.63;5.93;;;;;;;17.23;58.13;100105.94;10445744;28;20039;-61
2024/02/21 18:55:28;;;;;;;10.23;6.93;;;;;;;17.25;57.66;100091.16;10441969;28;20810;-61
2024/02/21 19:00:29;;;;;;;11.90;8.10;;;;;;;17.31;59.46;100081.13;10447605;28;20291;-60
2024/02/21 19:05:29;;;;;;;12.40;6.95;;;;;;;17.35;58.14;100062.56;10411457;28;20303;-58
2024/02/21 19:10:29;;;;;;;10.23;5.37;;;;;;;17.35;58.52;100062.56;10446178;28;20108;-59
2024/02/21 19:15:30;;;;;;;12.40;7.32;;;;;;;17.32;59.72;100050.56;10441873;28;20291;-60
2024/02/21 19:20:30;;;;;;;15.25;6.03;;;;;;;17.34;59.26;100045.69;10436709;28;20025;-58
2024/02/21 19:25:31;;;;;;;8.90;6.30;;;;;;;17.34;58.30;100031.50;10446143;28;20100;-60
2024/02/21 19:30:31;;;;;;;8.63;6.03;;;;;;;17.31;58.44;100018.72;10446577;28;20362;-61
2024/02/21 19:35:31;;;;;;;8.37;6.00;;;;;;;17.34;59.54;100018.09;10445449;28;20391;-62
2024/02/21 19:40:32;;;;;;;10.23;6.30;;;;;;;17.29;59.73;100000.25;10441233;28;20032;-62
2024/02/21 19:45:34;;;;;;;9.55;5.90;;;;;;;17.28;59.16;99992.50;10442304;28;20703;-60
2024/02/21 19:50:36;;;;;;;11.05;5.68;;;;;;;17.33;58.78;99979.78;10441870;28;20086;-60
2024/02/21 19:55:36;;;;;;;8.68;4.85;;;;;;;17.34;59.02;99965.28;10453126;28;20103;-61
2024/02/21 20:00:37;;;;;;;10.77;4.60;;;;;;;17.29;57.89;99954.72;10446639;28;20061;-61
2024/02/21 20:05:42;;;;;;;8.40;4.13;;;;;;;17.27;59.04;99951.53;10443207;28;20263;-61
2024/02/21 20:10:42;;;;;;;8.95;4.40;;;;;;;17.29;58.60;99938.63;10451156;28;20061;-61
2024/02/21 20:15:43;;;;;;;7.72;5.00;;;;;;;17.30;58.59;99931.38;10454721;28;20032;-59
2024/02/21 20:20:44;;;;;;;10.33;5.17;;;;;;;17.34;58.00;99918.94;10457715;28;20079;-59
2024/02/21 20:25:44;;;;;;;7.70;4.90;;;;;;;17.38;57.54;99915.34;10455847;28;20293;-60
2024/02/21 20:30:45;;;;;;;11.90;5.53;;;;;;;17.43;56.97;99899.16;10456982;28;20032;-60
2024/02/21 20:35:46;;;;;;;7.43;4.28;;;;;;;17.42;57.68;99889.53;10456540;28;20294;-60
2024/02/21 20:40:46;;;;;;;5.72;3.70;;;;;;;17.42;57.58;99880.72;10456712;28;20369;-60
2024/02/21 20:45:47;;;;;;;5.38;3.10;;;;;;;17.41;56.43;99877.22;10456334;28;20021;-60
2024/02/21 20:50:47;;;;;;;5.70;3.10;;;;;;;17.45;57.71;99869.38;10455160;28;20032;-60
2024/02/21 20:55:47;;;;;;;6.73;3.10;;;;;;;17.45;57.65;99862.13;10453247;28;20977;-59
2024/02/21 21:00:48;;;;;;;5.10;3.03;;;;;;;17.43;57.04;99850.13;10452584;28;20282;-60
2024/02/21 21:05:48;;;;;;;5.70;3.50;;;;;;;17.41;56.71;99839.72;10452901;28;20756;-60
2024/02/21 21:10:48;;;;;;;4.10;2.80;;;;;;;17.41;57.35;99833.56;10453228;28;20353;-59
2024/02/21 21:15:49;;;;;;;6.27;2.67;;;;;;;17.40;57.60;99819.34;10435839;28;20321;-59
2024/02/21 21:20:49;;;;;;;4.27;3.00;;;;;;;17.42;57.28;99811.81;10452971;28;20279;-59
2024/02/21 21:25:52;;;;;;;2.70;1.87;;;;;;;17.46;56.60;99802.06;10451896;28;20268;-60
2024/02/21 21:30:53;;;;;;;3.95;1.83;;;;;;;17.44;57.21;99806.16;10453144;28;20286;-60
2024/02/21 21:35:53;;;;;;;4.03;2.33;;;;;;;17.46;57.71;99799.38;10454562;28;20025;-60
2024/02/21 21:40:53;;;;;;;4.97;2.90;;;;;;;17.46;57.51;99802.06;10454598;28;20021;-60
2024/02/21 21:45:54;;;;;;;5.50;2.90;;;;;;;17.42;56.98;99792.28;10454038;28;20264;-60
2024/02/21 21:50:55;;;;;;;3.67;2.07;;;;;;;17.41;56.62;99783.44;10454267;28;20643;-59
2024/02/21 21:55:55;;;;;;;4.47;2.20;;;;;;;17.42;56.43;99779.66;10453492;28;20287;-60
2024/02/21 22:00:55;;;;;;;3.53;2.13;;;;;;;17.43;57.00;99777.78;10453749;28;20426;-59
2024/02/21 22:05:56;;;;;;;4.30;1.80;;;;;;;17.41;57.33;99766.56;10453473;28;20337;-59
2024/02/21 22:10:56;;;;;;;3.27;1.73;;;;;;;17.41;57.28;99758.53;10452827;28;20053;-59
2024/02/21 22:15:56;;;;;;;3.10;1.70;;;;;;;17.43;56.46;99751.75;10452704;28;20289;-59
2024/02/21 22:20:57;;;;;;;3.60;1.67;;;;;;;17.47;56.37;99742.00;10452800;28;20017;-59
2024/02/21 22:25:57;;;;;;;2.80;1.60;;;;;;;17.46;57.15;99743.09;10452287;28;20267;-60
2024/02/21 22:30:57;;;;;;;2.63;1.33;;;;;;;17.45;57.17;99724.66;10450335;28;20281;-59
2024/02/21 22:35:58;;;;;;;2.97;1.80;;;;;;;17.46;56.67;99723.53;10452132;28;20095;-59
2024/02/21 22:40:58;;;;;;;2.75;1.80;;;;;;;17.45;56.52;99703.22;10451895;28;20061;-60
2024/02/21 22:45:58;;;;;;;2.80;1.65;;;;;;;17.44;56.83;99696.28;10451688;28;20025;-59
2024/02/21 22:50:59;;;;;;;2.47;1.30;;;;;;;17.47;56.55;99695.63;10450367;28;20086;-60
2024/02/21 22:55:59;;;;;;;3.53;1.80;;;;;;;17.48;57.18;99689.19;10451456;28;20292;-60
2024/02/21 23:00:59;;;;;;;4.18;1.67;;;;;;;17.46;56.57;99694.84;10450784;28;20286;-60